Weatherford, OK

7:05 PM CDT on October 24, 2014 (GMT -0500)
Clinton-Sherman | Change Station
CLOSE
Current Station
Airport
Location: Clinton-Sherman,
Elevation: 1923 ft
Nearby Weather Stations

Elev 1923 ft 35.34 °N, 99.20 °W | Updated 12 minutes ago

Clear
Clear
78 °F
Feels Like 78 °F
N
8
Wind Variable Wind from SSW

Today
High -- | Low -- °F
--% Chance of Precip.
Yesterday
High -- | Low -- °F
Precip. -- in
7:49 AM 6:48 PM
New Moon, 1% visible
Pressure 30.00 in
Visibility 10.0 miles
Clouds Clear
Dew Point 58 °F
Humidity 50%
Rainfall 0.00 in
Snow Depth Not available.
UV 0 out of 12
Pollen 5.60 out of 12
Air Quality Not available.
Flu Activity Sporadic
METAR KCSM 242353Z 20007KT 10SM CLR 26/14 A3005 RMK AO2 SLP157 T02560144 10300 20244 55003

More Conditions Fewer Conditions

Pressure 30.00 in
Visibility 10.0 miles
Clouds Clear
Dew Point 58 °F
Humidity 50%
Rainfall 0.00 in
Snow Depth Not available.
UV 0 out of 12
Pollen 5.60 out of 12
Air Quality Not available.
Flu Activity Sporadic
METAR KCSM 242353Z 20007KT 10SM CLR 26/14 A3005 RMK AO2 SLP157 T02560144 10300 20244 55003

More Conditions Fewer Conditions

10-Day Weather Forecast

Almanac

Astronomy

Oct. 24, 2014 Rise Set
Actual Time 7:49 AM CDT 6:48 PM CDT
Civil Twilight 7:23 AM CDT 7:14 PM CDT
Nautical Twilight 6:53 AM CDT 7:44 PM CDT
Astronomical Twilight 6:23 AM CDT 8:13 PM CDT
Moon 8:28 AM CDT (10/24) 7:31 PM CDT (10/24)
Length of Visible Light 11h 51m
Length of Day
10h 59m
Tomorrow will be 2m 4s shorter.
New Moon, 1% of the Moon is Illuminated
Today
New Moon
Oct 30
First Quarter
Nov 6
Full
Nov 14
Last Quarter
Nov 22
New

Today's Extremes

State Highs State Lows

Community

WunderPhotos

Upload Photos

1,764,721 photos uploaded!

Nearby

Snow Depth

Station Depth Elevation
No new snow has been reported.

Earthquake Activity

City Distance Mag. Time & Date
Mooreland, Oklahoma 69 miles 2.5 2:43 PM CDT
2014-10-24
Medford, Oklahoma 100 miles 2.6 12:44 PM CDT
2014-10-24
Mooreland, Oklahoma 69 miles 2.5 12:39 PM CDT
2014-10-24
Anthony, Kansas 114 miles 2.7 4:24 AM CDT
2014-10-24
Minimum magnitude displayed is 2.5.

Coastal Water Temperatures

Place Temperature
No Stations Reporting

Nearby Weather Stations